Time;durP1;ratioP1;P1;durP2;ratioP2;P2;SDS_P1;SDS_P2;PMS_P1;PMS_P2;Temp;Humidity;BMP_temperature;BMP_pressure;BME280_temperature;BME280_humidity;BME280_pressure;Samples;Min_cycle;Max_cycle;Signal;HPM_P1;HPM_P2
2023/03/26 00:00:30;;;;;;;11.30;7.90;;;;;;;7.94;66.78;99184.86;109214;1275;21992;-81
2023/03/26 00:03:27;;;;;;;15.00;9.80;;;;;;;7.93;66.68;99183.89;109405;1275;21992;-79
2023/03/26 00:06:11;;;;;;;12.60;10.10;;;;;;;7.91;66.54;99185.18;109259;1275;22198;-80
2023/03/26 00:08:45;;;;;;;13.40;10.10;;;;;;;7.91;66.71;99185.67;108770;1281;22011;-79
2023/03/26 00:11:31;;;;;;;15.70;9.50;;;;;;;7.91;66.66;99184.64;108884;1277;23039;-80
2023/03/26 00:14:12;;;;;;;12.80;8.70;;;;;;;7.90;66.65;99182.46;109200;1277;23631;-80
2023/03/26 00:16:50;;;;;;;13.00;8.00;;;;;;;7.87;66.54;99185.16;109330;1273;22034;-80
2023/03/26 00:19:19;;;;;;;12.50;6.90;;;;;;;7.83;66.37;99186.39;109370;1272;22130;-79
2023/03/26 00:22:06;;;;;;;10.30;7.30;;;;;;;7.81;66.43;99183.20;109416;1272;22371;-80
2023/03/26 00:24:47;;;;;;;12.10;7.10;;;;;;;7.78;66.39;99184.52;109580;1266;22014;-81
2023/03/26 00:27:24;;;;;;;13.50;6.90;;;;;;;7.74;66.32;99182.65;110646;1260;23594;-80
2023/03/26 00:29:55;;;;;;;14.30;7.70;;;;;;;7.72;66.37;99179.09;110579;1260;23619;-79
2023/03/26 00:32:31;;;;;;;;;;;;;;;7.70;66.46;99176.40;110775;1256;21948;-81
2023/03/26 00:35:09;;;;;;;10.00;5.70;;;;;;;7.58;66.48;99173.84;110482;1264;21984;-81
2023/03/26 00:37:52;;;;;;;10.40;6.20;;;;;;;7.55;66.58;99172.41;110470;1266;23444;-78
2023/03/26 00:40:22;;;;;;;10.90;5.90;;;;;;;7.53;66.58;99167.45;110451;1265;22770;-80
2023/03/26 00:43:08;;;;;;;12.20;6.60;;;;;;;7.55;66.68;99164.27;110464;1266;22747;-81
2023/03/26 00:45:40;;;;;;;10.50;6.00;;;;;;;7.54;66.56;99164.31;110363;1266;21982;-82
2023/03/26 00:48:15;;;;;;;13.90;6.70;;;;;;;7.50;66.47;99164.83;110277;1266;23673;-81
2023/03/26 00:50:48;;;;;;;20.80;7.30;;;;;;;7.47;66.43;99165.87;110029;1270;22002;-81
2023/03/26 00:53:23;;;;;;;10.80;6.30;;;;;;;7.45;66.68;99161.27;109263;1274;22763;-81
2023/03/26 00:55:59;;;;;;;14.00;7.10;;;;;;;7.48;66.76;99158.16;109434;1275;22105;-79
2023/03/26 00:58:30;;;;;;;8.70;5.40;;;;;;;7.48;66.75;99160.41;109281;1273;23167;-81
2023/03/26 01:01:12;;;;;;;9.70;5.70;;;;;;;7.51;66.81;99163.06;109666;1271;23000;-81
2023/03/26 01:03:57;;;;;;;9.40;6.20;;;;;;;7.54;66.76;99164.65;109664;1271;23640;-79
2023/03/26 01:06:40;;;;;;;9.60;7.90;;;;;;;7.55;66.75;99158.56;109220;1275;22020;-81
2023/03/26 01:09:33;;;;;;;12.10;8.00;;;;;;;7.56;66.64;99156.23;109292;1274;23095;-78
2023/03/26 01:12:30;;;;;;;;;;;;;;;;;;;;;
2023/03/26 01:15:15;;;;;;;10.20;9.10;;;;;;;7.64;66.78;99155.56;110109;1267;21986;-78
2023/03/26 01:17:44;;;;;;;9.90;8.50;;;;;;;7.71;66.67;99154.71;109524;1272;22049;-79
2023/03/26 01:20:30;;;;;;;11.70;9.90;;;;;;;7.75;66.39;99151.58;109338;1273;22112;-80
2023/03/26 01:23:10;;;;;;;11.10;9.90;;;;;;;7.77;66.12;99150.96;109366;1273;23763;-80
2023/03/26 01:26:03;;;;;;;14.40;9.50;;;;;;;7.80;65.99;99150.98;109950;1266;21978;-80
2023/03/26 01:28:40;;;;;;;10.90;8.80;;;;;;;7.84;65.93;99153.09;110101;1265;23737;-80
2023/03/26 01:31:23;;;;;;;10.30;8.80;;;;;;;7.87;65.86;99150.36;110487;1266;21979;-78
2023/03/26 01:34:11;;;;;;;11.40;8.20;;;;;;;7.90;65.69;99146.45;110024;1269;21984;-81
2023/03/26 01:37:16;;;;;;;10.80;8.30;;;;;;;7.92;65.65;99143.40;109583;1261;22020;-80
2023/03/26 01:40:31;;;;;;;11.20;7.70;;;;;;;7.92;65.61;99140.95;109458;1268;21995;-80
2023/03/26 01:43:34;;;;;;;8.50;6.70;;;;;;;7.92;65.30;99139.23;109203;1276;23006;-81
2023/03/26 01:46:19;;;;;;;8.90;6.20;;;;;;;7.88;65.10;99136.99;109204;1276;21989;-81
2023/03/26 01:49:02;;;;;;;8.10;5.10;;;;;;;7.85;65.24;99136.24;109308;1276;21989;-80
2023/03/26 01:51:38;;;;;;;8.30;4.40;;;;;;;7.85;65.08;99133.48;109443;1261;23221;-80
2023/03/26 01:54:25;;;;;;;7.10;4.50;;;;;;;7.85;65.12;99137.12;109747;1264;22471;-81
2023/03/26 01:58:05;;;;;;;6.50;4.20;;;;;;;7.85;64.97;99138.86;109533;1272;22000;-80
2023/03/26 02:00:50;;;;;;;7.90;4.30;;;;;;;7.80;64.99;99138.35;108789;1284;21999;-80
2023/03/26 02:03:38;;;;;;;9.60;4.20;;;;;;;7.81;65.16;99135.21;108799;1284;22030;-81
2023/03/26 02:06:44;;;;;;;11.60;7.70;;;;;;;7.86;65.09;99136.20;108791;1277;22013;-82
2023/03/26 02:09:56;;;;;;;46.70;25.70;;;;;;;7.89;65.02;99133.83;108718;1287;22212;-80
2023/03/26 02:12:38;;;;;;;21.20;14.80;;;;;;;7.91;64.94;99131.84;108022;1292;22029;-82
2023/03/26 02:15:27;;;;;;;6.50;5.10;;;;;;;7.94;64.87;99130.99;107771;1293;22668;-81
2023/03/26 02:17:55;;;;;;;8.10;4.40;;;;;;;7.98;64.67;99127.33;107737;1299;21854;-81
2023/03/26 02:20:44;;;;;;;7.70;4.50;;;;;;;8.01;64.65;99129.98;107634;1297;22048;-80
2023/03/26 02:24:04;;;;;;;6.50;3.50;;;;;;;8.05;64.76;99133.77;107373;1302;22022;-82
2023/03/26 02:26:43;;;;;;;15.00;10.90;;;;;;;8.08;64.84;99133.80;106812;1304;22118;-80
2023/03/26 02:29:18;;;;;;;7.10;3.60;;;;;;;8.13;64.72;99130.27;106923;1303;22023;-82
2023/03/26 02:31:47;;;;;;;10.20;4.90;;;;;;;8.17;64.51;99132.68;107062;1298;22030;-83
2023/03/26 02:34:15;;;;;;;7.00;3.90;;;;;;;8.21;64.44;99130.95;107470;1298;22039;-81
2023/03/26 02:37:04;;;;;;;8.20;3.30;;;;;;;8.23;64.34;99129.63;107869;1287;22757;-80
2023/03/26 02:39:33;;;;;;;5.80;3.20;;;;;;;8.24;64.15;99129.21;108603;1281;22010;-81
2023/03/26 02:42:12;;;;;;;6.10;3.10;;;;;;;8.26;64.17;99129.66;109130;1276;21998;-79
2023/03/26 02:44:49;;;;;;;6.10;3.70;;;;;;;8.28;64.23;99128.20;109241;1275;23809;-81
2023/03/26 02:47:20;;;;;;;5.70;2.60;;;;;;;8.31;64.25;99126.81;109600;1269;22016;-81
2023/03/26 02:50:10;;;;;;;7.70;2.60;;;;;;;8.33;64.24;99124.45;109731;1269;21980;-80
2023/03/26 02:52:59;;;;;;;6.90;2.80;;;;;;;8.36;64.06;99119.30;109995;1269;21976;-80
2023/03/26 02:55:29;;;;;;;3.40;2.20;;;;;;;8.36;64.10;99118.23;109694;1269;21965;-80
2023/03/26 02:58:02;;;;;;;7.70;2.30;;;;;;;8.38;64.15;99114.88;110083;1267;22354;-81
2023/03/26 03:00:49;;;;;;;7.60;4.20;;;;;;;8.42;64.19;99115.06;110069;1266;23064;-80
2023/03/26 03:03:29;;;;;;;21.40;13.90;;;;;;;8.44;64.16;99111.48;109769;1268;21979;-79
2023/03/26 03:06:05;;;;;;;5.50;3.50;;;;;;;8.42;64.15;99112.42;109495;1267;22004;-79
2023/03/26 03:08:52;;;;;;;4.90;2.90;;;;;;;8.39;64.28;99113.45;109384;1272;21985;-82
2023/03/26 03:14:31;;;;;;;12.70;10.50;;;;;;;8.36;64.62;99113.06;105167;1276;5113455;-83
2023/03/26 03:17:08;;;;;;;15.30;13.80;;;;;;;8.35;64.67;99112.40;109614;1271;21979;-82
2023/03/26 03:19:42;;;;;;;20.90;17.80;;;;;;;8.34;64.80;99109.84;109560;1274;22252;-83
2023/03/26 03:22:29;;;;;;;11.40;10.10;;;;;;;8.35;64.84;99108.73;109469;1274;23051;-83
2023/03/26 03:25:14;;;;;;;5.60;4.40;;;;;;;8.35;65.03;99108.06;109991;1267;23631;-83
2023/03/26 03:27:52;;;;;;;25.00;22.40;;;;;;;8.36;65.07;99108.73;109835;1268;23072;-82
2023/03/26 03:30:23;;;;;;;60.40;44.60;;;;;;;8.38;65.22;99107.27;110731;1258;22560;-81
2023/03/26 03:33:33;;;;;;;36.90;31.30;;;;;;;8.38;65.28;99107.41;110923;1260;23593;-80
2023/03/26 03:36:12;;;;;;;8.30;7.50;;;;;;;8.40;65.24;99106.47;110885;1260;22013;-81
2023/03/26 03:39:01;;;;;;;6.90;4.10;;;;;;;8.39;65.28;99103.41;110875;1260;23013;-82
2023/03/26 03:41:44;;;;;;;4.30;2.20;;;;;;;8.37;65.21;99104.48;110691;1259;22383;-79
2023/03/26 03:44:20;;;;;;;4.00;1.90;;;;;;;8.39;65.25;99103.05;110840;1260;22105;-79
2023/03/26 03:46:52;;;;;;;5.30;2.30;;;;;;;8.40;65.20;99101.59;110780;1260;23100;-79
2023/03/26 03:49:21;;;;;;;3.90;2.20;;;;;;;8.43;65.14;99107.02;110001;1267;21982;-79
2023/03/26 03:51:58;;;;;;;6.80;2.50;;;;;;;8.45;65.16;99109.52;110371;1266;23602;-80
2023/03/26 03:54:39;;;;;;;5.20;2.20;;;;;;;8.45;65.08;99110.41;110415;1267;21976;-81
2023/03/26 03:57:14;;;;;;;6.90;3.40;;;;;;;8.45;65.10;99108.65;109627;1271;22375;-81
2023/03/26 04:00:07;;;;;;;9.40;3.80;;;;;;;8.44;65.14;99108.89;109203;1278;21853;-81
2023/03/26 04:02:53;;;;;;;6.70;2.80;;;;;;;8.45;65.24;99107.13;109184;1279;24968;-80
2023/03/26 04:05:35;;;;;;;6.00;2.80;;;;;;;8.47;65.18;99108.41;109105;1278;22750;-80
2023/03/26 04:08:06;;;;;;;7.30;2.80;;;;;;;8.49;64.82;99105.89;109180;1268;22002;-81
2023/03/26 04:11:03;;;;;;;7.40;3.50;;;;;;;8.48;65.06;99104.17;109139;1268;22989;-78
2023/03/26 04:13:34;;;;;;;9.50;4.10;;;;;;;8.48;64.84;99105.40;109263;1273;22032;-80
2023/03/26 04:16:23;;;;;;;7.40;3.10;;;;;;;8.47;64.86;99105.98;109511;1273;21994;-80
2023/03/26 04:19:03;;;;;;;5.70;3.10;;;;;;;8.46;64.82;99106.17;110306;1265;22763;-82
2023/03/26 04:21:41;;;;;;;7.30;3.10;;;;;;;8.46;64.82;99104.13;110277;1260;21966;-80
2023/03/26 04:24:16;;;;;;;;;;;;;;;8.43;64.63;99102.17;110886;1260;21951;-80
2023/03/26 04:27:15;;;;;;;10.00;2.80;;;;;;;8.29;64.78;99100.94;110972;1260;21997;-80
2023/03/26 04:30:04;;;;;;;5.00;2.40;;;;;;;8.25;64.78;99099.56;111010;1260;21977;-82
2023/03/26 04:32:45;;;;;;;6.20;2.30;;;;;;;8.25;64.84;99097.82;110493;1252;21992;-80
2023/03/26 04:35:20;;;;;;;5.10;2.00;;;;;;;8.25;64.90;99097.15;110404;1265;22151;-81
2023/03/26 04:38:10;;;;;;;6.10;2.60;;;;;;;8.25;64.95;99096.94;110296;1266;22605;-82
2023/03/26 04:40:52;;;;;;;5.40;2.60;;;;;;;8.26;64.95;99105.74;110520;1266;21991;-82
2023/03/26 04:43:36;;;;;;;5.60;2.10;;;;;;;8.26;65.06;99106.09;110515;1265;21997;-79
2023/03/26 04:46:55;;;;;;;8.20;3.30;;;;;;;8.25;65.00;99106.64;110176;1265;23044;-82
2023/03/26 04:49:53;;;;;;;5.10;2.90;;;;;;;8.24;65.06;99107.02;109005;1271;127705;-79
2023/03/26 04:52:35;;;;;;;7.20;2.60;;;;;;;8.24;64.98;99098.23;109578;1269;21981;-80
2023/03/26 04:56:11;;;;;;;7.60;3.10;;;;;;;8.22;64.96;99096.57;109699;1271;21986;-79
2023/03/26 04:59:13;;;;;;;5.70;2.70;;;;;;;8.20;65.14;99098.05;109445;1274;21995;-80
2023/03/26 05:01:49;;;;;;;5.70;2.70;;;;;;;8.23;65.15;99099.15;109169;1278;23787;-79
2023/03/26 05:04:21;;;;;;;8.20;2.90;;;;;;;8.26;65.26;99100.89;108675;1277;23726;-79
2023/03/26 05:06:56;;;;;;;7.70;3.90;;;;;;;8.27;65.07;99100.46;108845;1284;23673;-78
2023/03/26 05:09:41;;;;;;;11.20;3.30;;;;;;;8.29;65.24;99103.36;108719;1283;22023;-79
2023/03/26 05:12:23;;;;;;;5.60;2.60;;;;;;;8.31;65.50;99101.89;108768;1275;23059;-79
2023/03/26 05:15:06;;;;;;;3.40;2.10;;;;;;;8.33;65.42;99105.23;108804;1278;23660;-79
2023/03/26 05:18:00;;;;;;;4.40;1.90;;;;;;;8.36;65.66;99112.73;108352;1288;22387;-81
2023/03/26 05:21:05;;;;;;;5.40;2.50;;;;;;;8.40;65.67;99116.53;108668;1285;22004;-79
2023/03/26 05:24:18;;;;;;;4.20;2.40;;;;;;;8.42;65.54;99121.14;108574;1285;22015;-80
2023/03/26 05:26:50;;;;;;;6.90;2.70;;;;;;;8.41;65.58;99120.64;108687;1280;22005;-78
2023/03/26 05:29:29;;;;;;;4.40;2.50;;;;;;;8.38;65.56;99127.86;109022;1273;22082;-81
2023/03/26 05:32:02;;;;;;;3.80;2.40;;;;;;;8.34;65.57;99130.67;109338;1273;22014;-80
2023/03/26 05:34:38;;;;;;;6.10;2.70;;;;;;;8.32;65.71;99131.44;109250;1273;22072;-78
2023/03/26 05:37:13;;;;;;;8.10;4.20;;;;;;;8.35;65.76;99129.05;110471;1265;21979;-79
2023/03/26 05:40:13;;;;;;;5.30;3.30;;;;;;;8.35;65.99;99127.13;110536;1265;22941;-78
2023/03/26 05:42:52;;;;;;;5.40;2.60;;;;;;;8.35;66.08;99121.95;110492;1265;21983;-78
2023/03/26 05:46:08;;;;;;;6.40;2.90;;;;;;;8.35;66.12;99131.30;110463;1265;23691;-81
2023/03/26 05:48:43;;;;;;;6.30;2.80;;;;;;;8.32;66.13;99130.92;110847;1265;22404;-78
2023/03/26 05:51:15;;;;;;;6.40;1.60;;;;;;;8.29;66.17;99130.23;110614;1265;22033;-78
2023/03/26 05:53:52;;;;;;;3.60;2.40;;;;;;;8.26;66.17;99132.23;110650;1265;22014;-78
2023/03/26 05:56:44;;;;;;;3.90;2.00;;;;;;;8.24;66.09;99136.32;110328;1265;23702;-79
2023/03/26 05:59:43;;;;;;;3.70;1.60;;;;;;;8.22;66.19;99136.10;110417;1264;21976;-79
2023/03/26 06:02:33;;;;;;;4.90;2.30;;;;;;;8.23;66.45;99127.20;110649;1264;23123;-80
2023/03/26 06:05:43;;;;;;;8.40;2.70;;;;;;;8.28;66.58;99129.23;110495;1264;21993;-78
2023/03/26 06:08:25;;;;;;;5.30;2.90;;;;;;;8.29;66.62;99131.05;110910;1265;22729;-78
2023/03/26 06:11:00;;;;;;;4.80;3.00;;;;;;;8.32;66.68;99138.92;110512;1265;22007;-79
2023/03/26 06:13:34;;;;;;;4.60;2.50;;;;;;;8.34;66.72;99139.84;110357;1264;21976;-80
2023/03/26 06:16:05;;;;;;;3.90;2.20;;;;;;;8.38;66.63;99144.88;110451;1264;21994;-80
2023/03/26 06:18:46;;;;;;;6.20;3.40;;;;;;;8.40;66.40;99143.38;110210;1264;23716;-80
2023/03/26 06:21:40;;;;;;;3.10;1.70;;;;;;;8.38;66.35;99146.94;110751;1264;21973;-80
2023/03/26 06:24:18;;;;;;;3.50;2.10;;;;;;;8.42;66.41;99150.08;110166;1268;22020;-80
2023/03/26 06:26:58;;;;;;;;;;;;;;;8.47;66.37;99148.11;109861;1268;23076;-80
2023/03/26 06:29:32;;;;;;;7.60;5.60;;;;;;;8.44;66.46;99142.71;109719;1271;22061;-81
2023/03/26 06:32:37;;;;;;;8.50;4.30;;;;;;;8.43;66.27;99138.57;109326;1273;22850;-78
2023/03/26 06:35:13;;;;;;;8.40;4.40;;;;;;;8.42;66.42;99134.30;109426;1273;23611;-79
2023/03/26 06:37:43;;;;;;;6.60;3.50;;;;;;;8.46;66.62;99138.11;109585;1273;23732;-79
2023/03/26 06:40:13;;;;;;;11.70;4.90;;;;;;;8.53;66.87;99140.15;109305;1273;22391;-81
2023/03/26 06:43:04;;;;;;;7.50;4.10;;;;;;;8.64;66.89;99141.05;109654;1268;22027;-79
2023/03/26 06:45:57;;;;;;;6.00;3.80;;;;;;;8.70;66.88;99140.90;109946;1268;22123;-79
2023/03/26 06:48:43;;;;;;;6.50;3.70;;;;;;;8.82;67.23;99142.41;110357;1256;21978;-80
2023/03/26 06:51:19;;;;;;;6.00;3.80;;;;;;;9.04;67.48;99143.91;110573;1265;22486;-79
2023/03/26 06:54:31;;;;;;;8.10;4.00;;;;;;;9.23;67.17;99143.96;110618;1264;23473;-79
2023/03/26 06:57:11;;;;;;;7.10;3.80;;;;;;;9.30;66.47;99149.00;109758;1269;22045;-79
2023/03/26 07:00:07;;;;;;;6.00;3.60;;;;;;;9.29;65.93;99145.21;109947;1269;23065;-82
2023/03/26 07:03:19;;;;;;;8.70;3.90;;;;;;;9.24;65.62;99147.59;109889;1269;21987;-79
2023/03/26 07:06:13;;;;;;;5.80;3.60;;;;;;;9.26;65.68;99148.35;110028;1269;22002;-79
2023/03/26 07:09:33;;;;;;;6.30;3.60;;;;;;;9.28;65.45;99152.04;109470;1274;22227;-79
2023/03/26 07:12:41;;;;;;;6.70;3.30;;;;;;;9.25;65.27;99152.39;109324;1274;21990;-78
2023/03/26 07:15:33;;;;;;;4.50;2.60;;;;;;;9.21;65.09;99159.20;109531;1269;23744;-79
2023/03/26 07:18:19;;;;;;;4.00;2.00;;;;;;;9.14;65.03;99165.59;109581;1270;21985;-79
2023/03/26 07:20:56;;;;;;;4.80;2.80;;;;;;;9.11;65.05;99168.73;109535;1270;21996;-79
2023/03/26 07:23:32;;;;;;;5.10;2.80;;;;;;;9.07;65.20;99173.06;109590;1270;21986;-78
2023/03/26 07:27:07;;;;;;;10.80;5.80;;;;;;;9.02;65.27;99169.85;109572;1265;22079;-80
2023/03/26 07:30:11;;;;;;;12.00;8.30;;;;;;;9.02;65.38;99167.98;110136;1264;22004;-77
2023/03/26 07:33:13;;;;;;;11.80;6.30;;;;;;;9.07;65.60;99169.93;110425;1264;23628;-82
2023/03/26 07:36:42;;;;;;;10.00;6.50;;;;;;;9.16;65.78;99167.05;110289;1264;23293;-78
2023/03/26 07:40:11;;;;;;;21.70;13.40;;;;;;;9.26;65.77;99171.09;110744;1264;22011;-80
2023/03/26 07:43:46;;;;;;;11.70;7.80;;;;;;;9.31;65.48;99174.48;110613;1260;23926;-79
2023/03/26 07:47:06;;;;;;;10.40;6.80;;;;;;;9.26;65.43;99178.54;109991;1270;22031;-80
2023/03/26 07:49:50;;;;;;;9.70;5.30;;;;;;;9.19;65.32;99180.46;109415;1270;21995;-79
2023/03/26 07:52:42;;;;;;;9.90;8.10;;;;;;;9.11;65.35;99180.17;109518;1270;21989;-79
2023/03/26 07:56:03;;;;;;;8.10;4.20;;;;;;;9.04;65.51;99182.45;109868;1265;23611;-78
2023/03/26 07:59:14;;;;;;;6.90;4.60;;;;;;;8.97;65.96;99180.71;109751;1270;24150;-78
2023/03/26 08:02:46;;;;;;;6.40;5.20;;;;;;;9.00;66.58;99176.20;109993;1270;23535;-79
2023/03/26 08:06:03;;;;;;;6.70;5.10;;;;;;;9.24;67.66;99174.16;109680;1270;21980;-81
2023/03/26 08:09:24;;;;;;;16.00;7.90;;;;;;;9.52;67.78;99174.25;109755;1270;22233;-80
2023/03/26 08:12:46;;;;;;;9.70;5.10;;;;;;;9.71;67.27;99172.38;109259;1277;22862;-82
2023/03/26 08:15:38;;;;;;;6.10;4.40;;;;;;;9.85;67.14;99174.79;108873;1281;23762;-79
2023/03/26 08:18:43;;;;;;;4.60;3.60;;;;;;;9.98;66.54;99169.20;108922;1281;21991;-78
2023/03/26 08:21:30;;;;;;;7.70;4.20;;;;;;;10.17;66.44;99165.60;108880;1281;22686;-80
2023/03/26 08:24:27;;;;;;;9.70;4.30;;;;;;;10.34;66.17;99170.72;108843;1277;23081;-78
2023/03/26 08:27:21;;;;;;;6.30;4.60;;;;;;;10.49;65.55;99173.39;109090;1277;21860;-78
2023/03/26 08:30:00;;;;;;;6.60;4.30;;;;;;;10.62;65.23;99169.55;108792;1276;21989;-80
2023/03/26 08:32:38;;;;;;;4.00;3.10;;;;;;;10.80;64.88;99166.97;109095;1271;22055;-77
2023/03/26 08:35:12;;;;;;;6.20;4.30;;;;;;;11.03;64.68;99166.66;109646;1271;23136;-77
2023/03/26 08:37:44;;;;;;;4.30;3.20;;;;;;;11.39;64.64;99164.00;109679;1271;22056;-78
2023/03/26 08:40:54;;;;;;;9.00;4.60;;;;;;;11.82;63.52;99163.67;109601;1271;22719;-78
2023/03/26 08:44:02;;;;;;;9.30;5.00;;;;;;;12.00;61.83;99162.79;109172;1276;22043;-76
2023/03/26 08:47:03;;;;;;;7.20;4.70;;;;;;;11.98;60.84;99167.27;109095;1278;22073;-79
2023/03/26 08:50:31;;;;;;;5.90;2.60;;;;;;;11.94;60.09;99165.55;109444;1274;23718;-77
2023/03/26 08:53:46;;;;;;;3.80;2.90;;;;;;;11.87;59.87;99164.91;109380;1271;21990;-76
2023/03/26 08:57:07;;;;;;;6.50;3.30;;;;;;;11.89;59.65;99167.45;109450;1274;21994;-78
2023/03/26 09:00:32;;;;;;;5.50;3.70;;;;;;;11.88;59.49;99163.83;109126;1278;22181;-77
2023/03/26 09:03:22;;;;;;;9.00;4.40;;;;;;;11.86;59.17;99161.52;109524;1274;22017;-76
2023/03/26 09:06:15;;;;;;;7.20;4.70;;;;;;;11.86;59.14;99160.48;109347;1275;22792;-77
2023/03/26 09:09:29;;;;;;;5.50;3.20;;;;;;;11.86;59.01;99158.52;109114;1275;22030;-78
2023/03/26 09:12:35;;;;;;;8.20;5.40;;;;;;;11.81;58.56;99157.29;109358;1275;23698;-77
2023/03/26 09:15:27;;;;;;;7.30;3.80;;;;;;;11.73;58.65;99156.35;109344;1275;23712;-78
2023/03/26 09:18:37;;;;;;;5.20;3.30;;;;;;;11.78;58.95;99154.83;109776;1270;22004;-77
2023/03/26 09:21:17;;;;;;;7.30;3.30;;;;;;;11.87;58.84;99153.08;109848;1270;23712;-78
2023/03/26 09:24:19;;;;;;;5.20;3.00;;;;;;;12.02;58.78;99154.45;109765;1264;21980;-81
2023/03/26 09:27:46;;;;;;;6.30;3.40;;;;;;;12.20;58.24;99151.91;110381;1264;21975;-75
2023/03/26 09:30:56;;;;;;;4.10;2.70;;;;;;;12.33;57.69;99152.50;109311;1275;22027;-77
2023/03/26 09:33:58;;;;;;;7.60;3.90;;;;;;;12.41;57.06;99154.04;109149;1275;21995;-79
2023/03/26 09:39:54;;;;;;;11.00;4.50;;;;;;;12.23;56.21;99160.23;108774;1282;23052;-79
2023/03/26 09:43:04;;;;;;;12.90;6.60;;;;;;;12.19;56.07;99161.05;108732;1270;23085;-77
2023/03/26 09:46:18;;;;;;;10.30;5.20;;;;;;;12.17;56.03;99159.64;108510;1287;22008;-79
2023/03/26 09:49:11;;;;;;;9.50;5.20;;;;;;;12.07;56.06;99160.21;108529;1282;22017;-77
2023/03/26 09:52:35;;;;;;;12.20;6.00;;;;;;;12.04;56.14;99158.13;108575;1281;24516;-78
2023/03/26 09:55:55;;;;;;;12.10;4.90;;;;;;;12.02;56.03;99159.45;108263;1287;22002;-77
2023/03/26 09:59:07;;;;;;;10.10;5.10;;;;;;;11.86;55.44;99160.11;108440;1283;22757;-78
2023/03/26 10:02:26;;;;;;;7.90;4.70;;;;;;;11.76;55.69;99158.66;108634;1282;22224;-76
2023/03/26 10:05:45;;;;;;;7.80;4.70;;;;;;;11.70;55.68;99155.16;108560;1282;22000;-76
2023/03/26 10:08:47;;;;;;;5.80;3.50;;;;;;;11.92;56.15;99150.35;109076;1276;21990;-77
2023/03/26 10:11:44;;;;;;;4.00;2.50;;;;;;;12.24;55.47;99154.44;109158;1276;22460;-79
2023/03/26 10:14:52;;;;;;;5.50;4.50;;;;;;;12.30;54.19;99148.28;109297;1272;22909;-78
2023/03/26 10:18:02;;;;;;;5.50;3.50;;;;;;;12.27;53.89;99140.10;109059;1278;21997;-78
2023/03/26 10:21:10;;;;;;;3.90;2.90;;;;;;;12.54;54.25;99135.96;108928;1274;23653;-79
2023/03/26 10:24:01;;;;;;;6.40;5.70;;;;;;;13.03;54.09;99134.80;108961;1279;22014;-81
2023/03/26 10:26:53;;;;;;;3.40;2.60;;;;;;;13.48;52.96;99132.85;109164;1278;22457;-79
2023/03/26 10:30:15;;;;;;;8.50;4.50;;;;;;;13.78;51.41;99132.85;108990;1278;23715;-78
2023/03/26 10:33:41;;;;;;;4.60;4.00;;;;;;;13.80;50.94;99133.79;109492;1270;21978;-80
2023/03/26 10:36:51;;;;;;;4.10;3.10;;;;;;;13.54;50.69;99131.17;109526;1270;23689;-79
2023/03/26 10:39:50;;;;;;;2.80;2.30;;;;;;;13.39;50.76;99133.84;109821;1270;23122;-79
2023/03/26 10:43:35;;;;;;;3.80;2.70;;;;;;;13.23;50.76;99126.48;109362;1274;22998;-78
2023/03/26 10:47:19;;;;;;;4.00;3.00;;;;;;;13.05;51.05;99124.36;108746;1277;23814;-78
2023/03/26 10:50:52;;;;;;;6.90;5.00;;;;;;;12.87;51.19;99126.48;108278;1288;23015;-78
2023/03/26 10:54:18;;;;;;;5.20;4.20;;;;;;;12.64;51.28;99122.00;107829;1293;22982;-78
2023/03/26 10:57:42;;;;;;;6.20;4.60;;;;;;;12.47;51.46;99126.14;108107;1292;23088;-78
2023/03/26 11:00:25;;;;;;;4.40;3.70;;;;;;;12.29;51.87;99132.02;108587;1285;23735;-77
2023/03/26 11:03:39;;;;;;;6.60;4.50;;;;;;;12.21;52.55;99126.22;108675;1288;22187;-79
2023/03/26 11:06:37;;;;;;;5.70;3.60;;;;;;;12.32;53.31;99130.56;108651;1287;22000;-80
2023/03/26 11:09:23;;;;;;;3.90;2.80;;;;;;;12.46;53.58;99129.17;108484;1288;22021;-79
2023/03/26 11:12:09;;;;;;;5.20;3.30;;;;;;;12.70;54.13;99127.59;108558;1288;23749;-80
2023/03/26 11:15:39;;;;;;;6.90;5.20;;;;;;;12.93;54.30;99126.71;108403;1284;22005;-81
2023/03/26 11:18:22;;;;;;;8.00;4.30;;;;;;;13.01;53.88;99128.16;108792;1278;23752;-80
2023/03/26 11:21:12;;;;;;;3.60;3.10;;;;;;;12.93;53.42;99131.13;108941;1274;23750;-79
2023/03/26 11:24:58;;;;;;;6.60;3.80;;;;;;;12.77;53.47;99131.50;109696;1274;22060;-79
2023/03/26 11:27:49;;;;;;;5.80;3.30;;;;;;;12.59;53.89;99132.47;108763;1288;22433;-80
2023/03/26 11:30:23;;;;;;;4.80;3.20;;;;;;;12.51;53.89;99132.81;109111;1279;22005;-79
2023/03/26 11:33:06;;;;;;;6.00;3.60;;;;;;;12.40;54.08;99133.88;109125;1280;22020;-79
2023/03/26 11:35:48;;;;;;;7.00;3.80;;;;;;;12.26;54.20;99135.66;109000;1270;23056;-79
2023/03/26 11:38:26;;;;;;;3.90;3.00;;;;;;;12.17;54.62;99136.91;109126;1277;23656;-80
2023/03/26 11:41:03;;;;;;;4.10;3.00;;;;;;;12.18;55.17;99136.14;109057;1275;22012;-82
2023/03/26 11:44:17;;;;;;;3.70;2.50;;;;;;;12.26;55.30;99133.77;108799;1282;22054;-78
2023/03/26 11:47:03;;;;;;;2.80;2.10;;;;;;;12.28;55.04;99133.95;109009;1276;22194;-80
2023/03/26 11:49:37;;;;;;;4.00;2.90;;;;;;;12.29;54.62;99132.14;108841;1276;24482;-78
2023/03/26 11:52:08;;;;;;;4.70;3.40;;;;;;;12.31;54.46;99130.44;108873;1276;23511;-79
2023/03/26 11:54:37;;;;;;;5.10;4.00;;;;;;;12.30;53.95;99127.71;108889;1276;23692;-76
2023/03/26 11:58:04;;;;;;;5.00;2.80;;;;;;;12.28;53.83;99124.55;109031;1276;23653;-77
2023/03/26 12:00:41;;;;;;;4.90;3.30;;;;;;;12.40;53.78;99120.65;109766;1264;23627;-77
2023/03/26 12:03:15;;;;;;;3.80;2.10;;;;;;;12.61;53.36;99119.63;110233;1264;21973;-76
2023/03/26 12:05:58;;;;;;;4.40;2.40;;;;;;;12.81;52.71;99114.83;110252;1263;22031;-77
2023/03/26 12:08:42;;;;;;;5.80;4.70;;;;;;;12.95;51.99;99111.93;110181;1264;21976;-77
2023/03/26 12:11:45;;;;;;;;;;;;;;;;;;;;;
2023/03/26 12:14:29;;;;;;;14.80;13.60;;;;;;;13.23;50.84;99107.79;110438;1263;21974;-76
2023/03/26 12:17:55;;;;;;;4.60;3.20;;;;;;;13.30;50.35;99105.55;110295;1264;21985;-79
2023/03/26 12:20:52;;;;;;;6.70;3.50;;;;;;;13.25;49.87;99105.23;110754;1260;23650;-80
2023/03/26 12:23:54;;;;;;;8.70;4.50;;;;;;;13.20;49.77;99105.05;110438;1264;22743;-79
2023/03/26 12:26:40;;;;;;;9.70;6.10;;;;;;;13.12;49.50;99102.42;110458;1264;21990;-80
2023/03/26 12:30:30;;;;;;;7.10;5.10;;;;;;;12.98;49.36;99103.05;110695;1264;21977;-79
2023/03/26 12:33:13;;;;;;;8.30;6.60;;;;;;;13.00;49.32;99103.23;110499;1261;22035;-80
2023/03/26 12:35:47;;;;;;;6.50;5.40;;;;;;;13.05;49.10;99100.30;110265;1265;22047;-80
2023/03/26 12:38:33;;;;;;;8.40;6.30;;;;;;;13.03;48.90;99096.07;109546;1270;23122;-80
2023/03/26 12:41:20;;;;;;;7.30;5.40;;;;;;;12.97;48.98;99098.56;109894;1270;22871;-80
2023/03/26 12:44:49;;;;;;;6.70;5.40;;;;;;;12.90;49.17;99101.10;109714;1270;21998;-77
2023/03/26 12:47:39;;;;;;;7.60;6.80;;;;;;;12.83;49.11;99101.92;109628;1268;22049;-78
2023/03/26 12:50:51;;;;;;;7.30;6.40;;;;;;;12.84;49.37;99103.09;109702;1270;22012;-78
2023/03/26 12:53:51;;;;;;;6.50;5.10;;;;;;;12.81;49.38;99105.05;109935;1270;22046;-81
2023/03/26 12:57:25;;;;;;;7.60;4.40;;;;;;;12.81;49.35;99101.52;110315;1264;22033;-79
2023/03/26 13:00:48;;;;;;;6.10;3.90;;;;;;;12.81;49.53;99099.13;109606;1270;23842;-79
2023/03/26 13:04:00;;;;;;;7.30;5.10;;;;;;;12.78;49.20;99095.30;109248;1275;21987;-79
2023/03/26 13:07:06;;;;;;;8.60;4.70;;;;;;;12.71;49.12;99093.64;109286;1275;21996;-79
2023/03/26 13:10:41;;;;;;;4.90;4.00;;;;;;;12.72;49.28;99091.86;108972;1281;23805;-79
2023/03/26 13:14:12;;;;;;;5.90;4.10;;;;;;;12.78;49.00;99088.84;108648;1280;22926;-81
2023/03/26 13:17:21;;;;;;;6.20;3.70;;;;;;;12.77;49.10;99090.15;108402;1287;23266;-79
2023/03/26 13:20:45;;;;;;;5.00;3.50;;;;;;;12.78;49.28;99089.34;108766;1285;23146;-80
2023/03/26 13:24:11;;;;;;;5.70;3.90;;;;;;;12.77;49.09;99089.25;108795;1286;21992;-79
2023/03/26 13:27:57;;;;;;;5.20;3.70;;;;;;;12.71;49.22;99089.48;108623;1282;22498;-81
2023/03/26 13:31:51;;;;;;;4.30;3.40;;;;;;;12.57;49.24;99091.73;108842;1275;23739;-79
2023/03/26 13:35:29;;;;;;;5.30;3.50;;;;;;;12.35;49.46;99083.59;108658;1285;22010;-77
2023/03/26 13:38:37;;;;;;;5.60;4.30;;;;;;;12.17;50.08;99078.33;108259;1290;22002;-79
2023/03/26 13:41:28;;;;;;;19.80;17.00;;;;;;;12.08;50.52;99079.59;107608;1296;22013;-79